sensor_id;sensor_type;location;lat;lon;timestamp;pressure;altitude;pressure_sealevel;temperature;humidity
43071;BME280;36278;47.952;21.714;2022-11-20T00:03:31;100112.81;;;1.91;100.00
43071;BME280;36278;47.952;21.714;2022-11-20T00:06:08;100100.66;;;1.69;100.00
43071;BME280;36278;47.952;21.714;2022-11-20T00:08:34;100103.06;;;1.94;100.00
43071;BME280;36278;47.952;21.714;2022-11-20T00:11:07;100103.59;;;1.82;100.00
43071;BME280;36278;47.952;21.714;2022-11-20T00:13:35;100101.25;;;1.76;100.00
43071;BME280;36278;47.952;21.714;2022-11-20T00:16:02;100112.88;;;1.89;100.00
43071;BME280;36278;47.952;21.714;2022-11-20T00:18:29;100116.00;;;1.98;100.00
43071;BME280;36278;47.952;21.714;2022-11-20T00:21:06;100104.31;;;1.86;100.00
43071;BME280;36278;47.952;21.714;2022-11-20T00:23:35;100101.00;;;1.82;100.00
43071;BME280;36278;47.952;21.714;2022-11-20T00:26:03;100109.34;;;1.90;100.00
43071;BME280;36278;47.952;21.714;2022-11-20T00:28:30;100115.03;;;1.59;99.70
43071;BME280;36278;47.952;21.714;2022-11-20T00:31:07;100107.78;;;1.66;100.00
43071;BME280;36278;47.952;21.714;2022-11-20T00:33:34;100113.22;;;1.82;100.00
43071;BME280;36278;47.952;21.714;2022-11-20T00:36:05;100123.97;;;1.74;99.60
43071;BME280;36278;47.952;21.714;2022-11-20T00:38:32;100113.78;;;1.68;99.16
43071;BME280;36278;47.952;21.714;2022-11-20T00:41:06;100126.13;;;1.64;98.96
43071;BME280;36278;47.952;21.714;2022-11-20T00:43:32;100116.97;;;1.54;99.45
43071;BME280;36278;47.952;21.714;2022-11-20T00:46:09;100131.16;;;1.69;97.52
43071;BME280;36278;47.952;21.714;2022-11-20T00:48:36;100128.59;;;1.67;98.75
43071;BME280;36278;47.952;21.714;2022-11-20T00:51:01;100148.41;;;1.73;96.51
43071;BME280;36278;47.952;21.714;2022-11-20T00:53:27;100163.78;;;1.59;98.00
43071;BME280;36278;47.952;21.714;2022-11-20T00:55:57;100159.63;;;1.55;98.11
43071;BME280;36278;47.952;21.714;2022-11-20T00:58:23;100151.09;;;1.50;99.09
43071;BME280;36278;47.952;21.714;2022-11-20T01:00:49;100156.19;;;1.53;99.18
43071;BME280;36278;47.952;21.714;2022-11-20T01:03:16;100156.19;;;1.53;98.96
43071;BME280;36278;47.952;21.714;2022-11-20T01:05:42;100155.28;;;1.54;98.66
43071;BME280;36278;47.952;21.714;2022-11-20T01:08:08;100145.69;;;1.54;98.11
43071;BME280;36278;47.952;21.714;2022-11-20T01:10:34;100158.63;;;1.57;96.88
43071;BME280;36278;47.952;21.714;2022-11-20T01:12:59;100143.34;;;1.48;99.46
43071;BME280;36278;47.952;21.714;2022-11-20T01:15:43;100156.72;;;1.61;100.00
43071;BME280;36278;47.952;21.714;2022-11-20T01:18:09;100144.47;;;1.63;98.28
43071;BME280;36278;47.952;21.714;2022-11-20T01:20:35;100133.91;;;1.66;98.03
43071;BME280;36278;47.952;21.714;2022-11-20T01:23:02;100114.44;;;1.73;96.49
43071;BME280;36278;47.952;21.714;2022-11-20T01:25:27;100122.34;;;1.72;96.54
43071;BME280;36278;47.952;21.714;2022-11-20T01:27:53;100117.75;;;1.77;96.88
43071;BME280;36278;47.952;21.714;2022-11-20T01:30:19;100117.75;;;1.77;98.41
43071;BME280;36278;47.952;21.714;2022-11-20T01:32:44;100107.13;;;1.81;95.39
43071;BME280;36278;47.952;21.714;2022-11-20T01:35:10;100098.31;;;1.84;96.00
43071;BME280;36278;47.952;21.714;2022-11-20T01:37:36;100096.63;;;1.83;95.84
43071;BME280;36278;47.952;21.714;2022-11-20T01:40:01;100101.50;;;1.70;97.43
43071;BME280;36278;47.952;21.714;2022-11-20T01:42:27;100115.63;;;1.66;97.67
43071;BME280;36278;47.952;21.714;2022-11-20T01:48:14;100117.69;;;1.58;99.20
43071;BME280;36278;47.952;21.714;2022-11-20T01:50:40;100111.50;;;1.60;98.97
43071;BME280;36278;47.952;21.714;2022-11-20T01:53:10;100090.59;;;1.60;98.35
43071;BME280;36278;47.952;21.714;2022-11-20T01:55:44;100085.91;;;1.68;98.49
43071;BME280;36278;47.952;21.714;2022-11-20T01:58:11;100079.78;;;1.69;97.48
43071;BME280;36278;47.952;21.714;2022-11-20T02:00:38;100084.88;;;1.73;97.74
43071;BME280;36278;47.952;21.714;2022-11-20T02:03:09;100081.94;;;1.80;96.86
43071;BME280;36278;47.952;21.714;2022-11-20T02:05:49;100087.94;;;1.82;96.90
43071;BME280;36278;47.952;21.714;2022-11-20T02:08:18;100075.03;;;1.79;96.61
43071;BME280;36278;47.952;21.714;2022-11-20T02:10:44;100078.91;;;1.69;97.40
43071;BME280;36278;47.952;21.714;2022-11-20T02:13:10;100052.13;;;1.65;97.71
43071;BME280;36278;47.952;21.714;2022-11-20T02:15:55;100052.69;;;1.72;98.46
43071;BME280;36278;47.952;21.714;2022-11-20T02:18:21;100038.81;;;1.72;97.63
43071;BME280;36278;47.952;21.714;2022-11-20T02:20:51;100045.97;;;1.66;97.46
43071;BME280;36278;47.952;21.714;2022-11-20T02:23:41;100058.25;;;1.64;98.58
43071;BME280;36278;47.952;21.714;2022-11-20T02:26:12;100058.69;;;1.54;97.76
43071;BME280;36278;47.952;21.714;2022-11-20T02:28:38;100049.75;;;1.59;97.65
43071;BME280;36278;47.952;21.714;2022-11-20T02:31:05;100036.69;;;1.59;99.09
43071;BME280;36278;47.952;21.714;2022-11-20T02:33:30;100031.34;;;1.62;98.42
43071;BME280;36278;47.952;21.714;2022-11-20T02:35:56;100041.78;;;1.62;98.10
43071;BME280;36278;47.952;21.714;2022-11-20T02:38:21;100041.84;;;1.61;97.47
43071;BME280;36278;47.952;21.714;2022-11-20T02:40:47;100043.84;;;1.56;98.40
43071;BME280;36278;47.952;21.714;2022-11-20T02:43:15;100052.28;;;1.61;98.25
43071;BME280;36278;47.952;21.714;2022-11-20T02:45:41;100048.66;;;1.65;98.21
43071;BME280;36278;47.952;21.714;2022-11-20T02:48:06;100044.47;;;1.61;98.65
43071;BME280;36278;47.952;21.714;2022-11-20T02:50:35;100035.97;;;1.76;97.47
43071;BME280;36278;47.952;21.714;2022-11-20T02:53:01;100010.41;;;1.64;97.67
43071;BME280;36278;47.952;21.714;2022-11-20T02:55:26;100023.16;;;1.70;96.49
43071;BME280;36278;47.952;21.714;2022-11-20T02:57:52;100023.06;;;1.73;97.35
43071;BME280;36278;47.952;21.714;2022-11-20T03:00:18;100017.09;;;1.69;95.53
43071;BME280;36278;47.952;21.714;2022-11-20T03:02:43;100010.19;;;1.68;96.46
43071;BME280;36278;47.952;21.714;2022-11-20T03:05:09;100008.31;;;1.72;97.62
43071;BME280;36278;47.952;21.714;2022-11-20T03:07:34;99998.56;;;1.76;97.34
43071;BME280;36278;47.952;21.714;2022-11-20T03:10:00;99998.13;;;1.66;96.74
43071;BME280;36278;47.952;21.714;2022-11-20T03:12:25;100005.63;;;1.74;95.90
43071;BME280;36278;47.952;21.714;2022-11-20T03:14:50;100019.50;;;1.55;96.55
43071;BME280;36278;47.952;21.714;2022-11-20T03:17:16;100008.06;;;1.58;96.49
43071;BME280;36278;47.952;21.714;2022-11-20T03:19:42;100012.22;;;1.62;96.22
43071;BME280;36278;47.952;21.714;2022-11-20T03:22:07;100020.19;;;1.59;96.33
43071;BME280;36278;47.952;21.714;2022-11-20T03:24:32;100009.69;;;1.60;96.34
43071;BME280;36278;47.952;21.714;2022-11-20T03:26:58;99996.38;;;1.66;95.60
43071;BME280;36278;47.952;21.714;2022-11-20T03:29:23;99991.13;;;1.66;95.55
43071;BME280;36278;47.952;21.714;2022-11-20T03:31:49;99997.28;;;1.65;95.07
43071;BME280;36278;47.952;21.714;2022-11-20T03:34:14;99986.09;;;1.62;95.85
43071;BME280;36278;47.952;21.714;2022-11-20T03:36:41;99987.25;;;1.56;95.31
43071;BME280;36278;47.952;21.714;2022-11-20T03:39:07;99993.09;;;1.61;94.60
43071;BME280;36278;47.952;21.714;2022-11-20T03:41:36;99998.78;;;1.51;96.31
43071;BME280;36278;47.952;21.714;2022-11-20T03:44:04;100003.44;;;1.44;96.32
43071;BME280;36278;47.952;21.714;2022-11-20T03:46:31;100008.22;;;1.55;96.54
43071;BME280;36278;47.952;21.714;2022-11-20T03:48:57;99999.19;;;1.42;97.09
43071;BME280;36278;47.952;21.714;2022-11-20T03:51:24;100008.75;;;1.61;95.62
43071;BME280;36278;47.952;21.714;2022-11-20T03:53:52;100012.94;;;1.65;94.88
43071;BME280;36278;47.952;21.714;2022-11-20T03:56:21;100007.41;;;1.53;96.22
43071;BME280;36278;47.952;21.714;2022-11-20T03:58:47;100026.34;;;1.58;96.66
43071;BME280;36278;47.952;21.714;2022-11-20T04:01:21;100008.56;;;1.46;96.18
43071;BME280;36278;47.952;21.714;2022-11-20T04:03:47;100009.09;;;1.54;96.08
43071;BME280;36278;47.952;21.714;2022-11-20T04:06:16;100006.81;;;1.46;96.19
43071;BME280;36278;47.952;21.714;2022-11-20T04:08:41;100009.41;;;1.46;97.04
43071;BME280;36278;47.952;21.714;2022-11-20T04:11:19;100016.06;;;1.53;98.38
43071;BME280;36278;47.952;21.714;2022-11-20T04:13:58;100021.88;;;1.60;96.61
43071;BME280;36278;47.952;21.714;2022-11-20T04:16:26;100005.53;;;1.56;96.68
43071;BME280;36278;47.952;21.714;2022-11-20T04:18:53;100002.91;;;1.56;97.24
43071;BME280;36278;47.952;21.714;2022-11-20T04:21:18;100010.34;;;1.65;96.54
43071;BME280;36278;47.952;21.714;2022-11-20T04:23:44;100014.50;;;1.69;96.95
43071;BME280;36278;47.952;21.714;2022-11-20T04:26:11;100005.03;;;1.67;96.85
43071;BME280;36278;47.952;21.714;2022-11-20T04:28:37;100005.19;;;1.64;98.43
43071;BME280;36278;47.952;21.714;2022-11-20T04:31:04;100009.56;;;1.63;97.08
43071;BME280;36278;47.952;21.714;2022-11-20T04:33:30;99992.81;;;1.49;98.02
43071;BME280;36278;47.952;21.714;2022-11-20T04:36:00;99999.66;;;1.51;98.48
43071;BME280;36278;47.952;21.714;2022-11-20T04:38:26;99985.91;;;1.48;98.88
43071;BME280;36278;47.952;21.714;2022-11-20T04:40:56;99984.06;;;1.50;97.93
43071;BME280;36278;47.952;21.714;2022-11-20T04:43:21;99989.69;;;1.40;98.93
43071;BME280;36278;47.952;21.714;2022-11-20T04:45:54;99993.75;;;1.46;98.47
43071;BME280;36278;47.952;21.714;2022-11-20T04:48:20;99979.34;;;1.37;99.76
43071;BME280;36278;47.952;21.714;2022-11-20T04:50:45;99974.41;;;1.31;100.00
43071;BME280;36278;47.952;21.714;2022-11-20T04:53:10;99963.06;;;1.32;100.00
43071;BME280;36278;47.952;21.714;2022-11-20T04:55:36;99963.91;;;1.33;100.00
43071;BME280;36278;47.952;21.714;2022-11-20T04:58:01;99955.34;;;1.29;100.00
43071;BME280;36278;47.952;21.714;2022-11-20T05:00:27;99962.28;;;1.30;99.95
43071;BME280;36278;47.952;21.714;2022-11-20T05:02:52;99965.53;;;1.35;100.00
43071;BME280;36278;47.952;21.714;2022-11-20T05:05:18;99944.53;;;1.18;100.00
43071;BME280;36278;47.952;21.714;2022-11-20T05:07:43;99944.88;;;1.31;99.72
43071;BME280;36278;47.952;21.714;2022-11-20T05:12:36;99934.47;;;1.29;99.59
43071;BME280;36278;47.952;21.714;2022-11-20T05:15:02;99902.09;;;0.94;98.09
43071;BME280;36278;47.952;21.714;2022-11-20T05:17:28;99891.00;;;0.89;99.54
43071;BME280;36278;47.952;21.714;2022-11-20T05:19:53;99892.78;;;0.89;99.68
43071;BME280;36278;47.952;21.714;2022-11-20T05:22:19;99877.63;;;0.97;99.79
43071;BME280;36278;47.952;21.714;2022-11-20T05:24:45;99899.16;;;1.02;99.06
43071;BME280;36278;47.952;21.714;2022-11-20T05:27:11;99907.50;;;1.10;98.60
43071;BME280;36278;47.952;21.714;2022-11-20T05:29:36;99858.44;;;0.79;99.23
43071;BME280;36278;47.952;21.714;2022-11-20T05:32:02;99897.91;;;1.10;98.94
43071;BME280;36278;47.952;21.714;2022-11-20T05:34:28;99846.63;;;0.91;100.00
43071;BME280;36278;47.952;21.714;2022-11-20T05:36:54;99831.31;;;0.83;99.64
43071;BME280;36278;47.952;21.714;2022-11-20T05:39:19;99875.28;;;1.11;99.17
43071;BME280;36278;47.952;21.714;2022-11-20T05:41:49;99824.59;;;0.98;97.26
43071;BME280;36278;47.952;21.714;2022-11-20T05:44:34;99854.69;;;1.05;97.99
43071;BME280;36278;47.952;21.714;2022-11-20T05:47:00;99927.31;;;1.53;97.12
43071;BME280;36278;47.952;21.714;2022-11-20T05:49:26;99877.22;;;1.26;97.22
43071;BME280;36278;47.952;21.714;2022-11-20T05:51:51;99849.44;;;1.06;98.13
43071;BME280;36278;47.952;21.714;2022-11-20T05:54:17;99846.81;;;1.06;98.30
43071;BME280;36278;47.952;21.714;2022-11-20T05:56:43;99934.41;;;1.70;98.20
43071;BME280;36278;47.952;21.714;2022-11-20T05:59:09;99858.81;;;1.29;96.03
43071;BME280;36278;47.952;21.714;2022-11-20T06:01:35;99861.13;;;1.17;96.11
43071;BME280;36278;47.952;21.714;2022-11-20T06:04:01;99913.44;;;1.53;96.94
43071;BME280;36278;47.952;21.714;2022-11-20T06:06:27;99848.16;;;1.15;97.75
43071;BME280;36278;47.952;21.714;2022-11-20T06:08:54;99878.41;;;1.38;97.78
43071;BME280;36278;47.952;21.714;2022-11-20T06:11:20;99858.69;;;1.32;98.04
43071;BME280;36278;47.952;21.714;2022-11-20T06:13:46;99885.97;;;1.44;97.42
43071;BME280;36278;47.952;21.714;2022-11-20T06:16:14;99903.72;;;1.56;96.61
43071;BME280;36278;47.952;21.714;2022-11-20T06:18:42;99855.44;;;1.27;96.77
43071;BME280;36278;47.952;21.714;2022-11-20T06:21:17;99936.31;;;1.85;96.86
43071;BME280;36278;47.952;21.714;2022-11-20T06:23:45;99870.13;;;1.49;95.67
43071;BME280;36278;47.952;21.714;2022-11-20T06:26:14;99844.44;;;1.39;96.66
43071;BME280;36278;47.952;21.714;2022-11-20T06:28:41;99872.59;;;1.52;96.72
43071;BME280;36278;47.952;21.714;2022-11-20T06:31:07;99863.56;;;1.59;95.54
43071;BME280;36278;47.952;21.714;2022-11-20T06:33:35;99887.47;;;1.68;95.88
43071;BME280;36278;47.952;21.714;2022-11-20T06:36:03;99869.84;;;1.74;95.22
43071;BME280;36278;47.952;21.714;2022-11-20T06:38:29;99832.59;;;1.51;95.45
43071;BME280;36278;47.952;21.714;2022-11-20T06:40:55;99883.41;;;1.63;95.80
43071;BME280;36278;47.952;21.714;2022-11-20T06:43:22;99893.53;;;1.69;95.08
43071;BME280;36278;47.952;21.714;2022-11-20T06:45:53;99896.06;;;1.71;95.43
43071;BME280;36278;47.952;21.714;2022-11-20T06:48:19;99886.06;;;1.61;96.48
43071;BME280;36278;47.952;21.714;2022-11-20T06:50:45;99847.06;;;1.39;96.66
43071;BME280;36278;47.952;21.714;2022-11-20T06:53:10;99849.44;;;1.44;96.51
43071;BME280;36278;47.952;21.714;2022-11-20T06:55:36;99850.16;;;1.48;97.30
43071;BME280;36278;47.952;21.714;2022-11-20T06:58:05;99906.47;;;1.91;96.81
43071;BME280;36278;47.952;21.714;2022-11-20T07:00:31;99869.47;;;1.62;97.58
43071;BME280;36278;47.952;21.714;2022-11-20T07:02:56;99860.78;;;1.62;97.46
43071;BME280;36278;47.952;21.714;2022-11-20T07:05:22;99843.88;;;1.52;96.92
43071;BME280;36278;47.952;21.714;2022-11-20T07:07:48;99893.59;;;1.86;97.40
43071;BME280;36278;47.952;21.714;2022-11-20T07:10:13;99863.97;;;1.68;96.33
43071;BME280;36278;47.952;21.714;2022-11-20T07:12:39;99873.50;;;1.88;96.39
43071;BME280;36278;47.952;21.714;2022-11-20T07:15:05;99874.13;;;1.93;95.65
43071;BME280;36278;47.952;21.714;2022-11-20T07:17:31;99897.09;;;2.23;95.51
43071;BME280;36278;47.952;21.714;2022-11-20T07:19:57;99937.03;;;2.44;96.26
43071;BME280;36278;47.952;21.714;2022-11-20T07:22:23;99868.91;;;1.93;95.86
43071;BME280;36278;47.952;21.714;2022-11-20T07:24:49;99876.66;;;1.95;95.42
43071;BME280;36278;47.952;21.714;2022-11-20T07:27:14;99853.59;;;1.86;96.22
43071;BME280;36278;47.952;21.714;2022-11-20T07:29:43;99853.22;;;1.93;96.72
43071;BME280;36278;47.952;21.714;2022-11-20T07:32:09;99873.22;;;2.31;96.43
43071;BME280;36278;47.952;21.714;2022-11-20T07:34:35;99837.22;;;2.18;93.48
43071;BME280;36278;47.952;21.714;2022-11-20T07:37:00;99821.41;;;2.21;93.36
43071;BME280;36278;47.952;21.714;2022-11-20T07:39:26;99838.16;;;2.35;92.86
43071;BME280;36278;47.952;21.714;2022-11-20T07:41:51;99908.16;;;2.81;92.50
43071;BME280;36278;47.952;21.714;2022-11-20T07:44:17;99847.09;;;2.48;93.85
43071;BME280;36278;47.952;21.714;2022-11-20T07:46:43;99850.47;;;2.50;93.16
43071;BME280;36278;47.952;21.714;2022-11-20T07:49:09;99879.69;;;2.58;92.97
43071;BME280;36278;47.952;21.714;2022-11-20T07:51:34;99813.09;;;2.13;94.19
43071;BME280;36278;47.952;21.714;2022-11-20T07:54:00;99884.38;;;2.51;95.54
43071;BME280;36278;47.952;21.714;2022-11-20T07:56:26;99920.00;;;2.71;94.06
43071;BME280;36278;47.952;21.714;2022-11-20T07:58:51;99909.53;;;2.71;95.45
43071;BME280;36278;47.952;21.714;2022-11-20T08:01:17;99863.53;;;2.50;93.17
43071;BME280;36278;47.952;21.714;2022-11-20T08:03:42;99856.78;;;2.46;93.80
43071;BME280;36278;47.952;21.714;2022-11-20T08:06:08;99859.69;;;2.40;93.73
43071;BME280;36278;47.952;21.714;2022-11-20T08:08:34;99890.28;;;2.38;94.18
43071;BME280;36278;47.952;21.714;2022-11-20T08:11:00;99903.97;;;2.60;94.34
43071;BME280;36278;47.952;21.714;2022-11-20T08:13:44;99856.69;;;2.30;95.07
43071;BME280;36278;47.952;21.714;2022-11-20T08:16:28;99899.28;;;2.67;95.37
43071;BME280;36278;47.952;21.714;2022-11-20T08:18:57;99901.78;;;2.87;94.91
43071;BME280;36278;47.952;21.714;2022-11-20T08:21:23;99860.97;;;3.00;93.34
43071;BME280;36278;47.952;21.714;2022-11-20T08:23:49;99904.16;;;3.25;91.45
43071;BME280;36278;47.952;21.714;2022-11-20T08:26:14;99881.78;;;3.19;92.56
43071;BME280;36278;47.952;21.714;2022-11-20T08:28:40;99875.38;;;3.25;92.53
43071;BME280;36278;47.952;21.714;2022-11-20T08:31:05;99898.84;;;3.44;91.61
43071;BME280;36278;47.952;21.714;2022-11-20T08:33:31;99908.56;;;3.57;91.22
43071;BME280;36278;47.952;21.714;2022-11-20T08:36:02;99901.41;;;3.61;91.34
43071;BME280;36278;47.952;21.714;2022-11-20T08:38:29;99911.25;;;3.56;90.41
43071;BME280;36278;47.952;21.714;2022-11-20T08:40:58;99925.94;;;3.43;92.56
43071;BME280;36278;47.952;21.714;2022-11-20T08:43:43;99910.28;;;3.41;92.51
43071;BME280;36278;47.952;21.714;2022-11-20T08:46:09;99915.00;;;3.68;91.81
43071;BME280;36278;47.952;21.714;2022-11-20T08:48:34;99910.50;;;3.54;90.96
43071;BME280;36278;47.952;21.714;2022-11-20T08:51:00;99927.09;;;3.70;93.08
43071;BME280;36278;47.952;21.714;2022-11-20T08:53:27;99921.59;;;3.90;91.40
43071;BME280;36278;47.952;21.714;2022-11-20T08:55:52;99919.75;;;3.92;91.36
43071;BME280;36278;47.952;21.714;2022-11-20T08:58:18;99911.72;;;3.80;89.48
43071;BME280;36278;47.952;21.714;2022-11-20T09:00:43;99916.72;;;4.00;91.12
43071;BME280;36278;47.952;21.714;2022-11-20T09:03:09;99916.81;;;3.83;91.13
43071;BME280;36278;47.952;21.714;2022-11-20T09:05:34;99916.44;;;3.73;90.93
43071;BME280;36278;47.952;21.714;2022-11-20T09:08:00;99916.34;;;3.90;92.18
43071;BME280;36278;47.952;21.714;2022-11-20T09:10:26;99923.38;;;4.06;89.82
43071;BME280;36278;47.952;21.714;2022-11-20T09:12:52;99915.94;;;3.98;90.62
43071;BME280;36278;47.952;21.714;2022-11-20T09:15:19;99937.50;;;4.03;90.69
43071;BME280;36278;47.952;21.714;2022-11-20T09:18:10;99942.50;;;3.92;91.30
43071;BME280;36278;47.952;21.714;2022-11-20T09:20:36;99937.84;;;4.13;90.18
43071;BME280;36278;47.952;21.714;2022-11-20T09:23:02;99937.94;;;3.96;90.05
43071;BME280;36278;47.952;21.714;2022-11-20T09:25:27;99919.75;;;3.92;90.57
43071;BME280;36278;47.952;21.714;2022-11-20T09:27:57;99937.94;;;3.96;90.34
43071;BME280;36278;47.952;21.714;2022-11-20T09:30:22;99924.94;;;4.10;89.63
43071;BME280;36278;47.952;21.714;2022-11-20T09:32:48;99940.66;;;4.10;90.25
43071;BME280;36278;47.952;21.714;2022-11-20T09:35:13;99934.72;;;4.06;90.53
43071;BME280;36278;47.952;21.714;2022-11-20T09:37:40;99952.31;;;4.20;89.78
43071;BME280;36278;47.952;21.714;2022-11-20T09:40:06;99953.25;;;4.19;88.34
43071;BME280;36278;47.952;21.714;2022-11-20T09:45:05;99942.16;;;4.45;87.08
43071;BME280;36278;47.952;21.714;2022-11-20T09:47:52;99931.75;;;4.44;87.97
43071;BME280;36278;47.952;21.714;2022-11-20T09:50:47;99934.38;;;4.44;87.61
43071;BME280;36278;47.952;21.714;2022-11-20T09:53:41;99932.16;;;4.52;87.61
43071;BME280;36278;47.952;21.714;2022-11-20T09:56:11;99929.44;;;4.54;88.97
43071;BME280;36278;47.952;21.714;2022-11-20T09:58:45;99940.13;;;4.50;88.14
43071;BME280;36278;47.952;21.714;2022-11-20T10:01:21;99952.91;;;4.57;87.64
43071;BME280;36278;47.952;21.714;2022-11-20T10:04:03;99953.13;;;4.68;88.51
43071;BME280;36278;47.952;21.714;2022-11-20T10:06:41;99965.81;;;4.60;87.07
43071;BME280;36278;47.952;21.714;2022-11-20T10:17:38;99927.53;;;4.71;87.12
43071;BME280;36278;47.952;21.714;2022-11-20T10:20:34;99918.69;;;4.88;86.77
43071;BME280;36278;47.952;21.714;2022-11-20T10:26:16;99906.53;;;5.01;85.84
43071;BME280;36278;47.952;21.714;2022-11-20T10:31:40;99896.69;;;4.91;84.00
43071;BME280;36278;47.952;21.714;2022-11-20T10:37:13;99891.34;;;5.21;82.25
43071;BME280;36278;47.952;21.714;2022-11-20T10:40:14;99899.22;;;5.21;84.50
43071;BME280;36278;47.952;21.714;2022-11-20T10:45:43;99925.88;;;5.29;82.13
43071;BME280;36278;47.952;21.714;2022-11-20T10:48:21;99886.31;;;5.18;82.53
43071;BME280;36278;47.952;21.714;2022-11-20T10:53:59;99907.50;;;5.43;83.38
43071;BME280;36278;47.952;21.714;2022-11-20T11:02:20;99879.59;;;5.83;82.61
43071;BME280;36278;47.952;21.714;2022-11-20T11:04:51;99839.53;;;5.80;81.71
43071;BME280;36278;47.952;21.714;2022-11-20T11:07:25;99896.94;;;6.14;80.08
43071;BME280;36278;47.952;21.714;2022-11-20T11:09:55;99884.84;;;6.12;79.97
43071;BME280;36278;47.952;21.714;2022-11-20T11:12:24;99911.03;;;6.40;78.89
43071;BME280;36278;47.952;21.714;2022-11-20T11:14:53;99907.47;;;6.41;78.02
43071;BME280;36278;47.952;21.714;2022-11-20T11:17:32;99903.31;;;6.52;77.00
43071;BME280;36278;47.952;21.714;2022-11-20T11:20:16;99904.34;;;6.49;77.39
43071;BME280;36278;47.952;21.714;2022-11-20T11:22:45;99885.06;;;6.49;76.52
43071;BME280;36278;47.952;21.714;2022-11-20T11:25:24;99888.38;;;6.52;77.07
43071;BME280;36278;47.952;21.714;2022-11-20T11:27:51;99841.13;;;6.24;77.16
43071;BME280;36278;47.952;21.714;2022-11-20T11:30:19;99855.91;;;6.39;78.47
43071;BME280;36278;47.952;21.714;2022-11-20T11:32:45;99880.50;;;6.65;77.29
43071;BME280;36278;47.952;21.714;2022-11-20T11:35:32;99880.53;;;6.78;76.00
43071;BME280;36278;47.952;21.714;2022-11-20T11:38:22;99847.88;;;6.80;75.38
43071;BME280;36278;47.952;21.714;2022-11-20T11:40:53;99885.41;;;7.09;75.24
43071;BME280;36278;47.952;21.714;2022-11-20T11:43:23;99883.81;;;7.07;75.29
43071;BME280;36278;47.952;21.714;2022-11-20T11:46:32;99894.22;;;7.08;77.04
43071;BME280;36278;47.952;21.714;2022-11-20T11:49:11;99898.47;;;7.11;76.03
43071;BME280;36278;47.952;21.714;2022-11-20T11:56:59;99857.69;;;7.03;74.99
43071;BME280;36278;47.952;21.714;2022-11-20T11:59:44;99870.22;;;7.00;74.39
43071;BME280;36278;47.952;21.714;2022-11-20T12:02:24;99855.59;;;7.09;74.39
43071;BME280;36278;47.952;21.714;2022-11-20T12:04:58;99844.19;;;7.08;73.71
43071;BME280;36278;47.952;21.714;2022-11-20T12:10:00;99861.47;;;7.38;74.16
43071;BME280;36278;47.952;21.714;2022-11-20T12:12:35;99861.59;;;7.11;75.43
43071;BME280;36278;47.952;21.714;2022-11-20T12:15:03;99856.22;;;7.12;76.70
43071;BME280;36278;47.952;21.714;2022-11-20T12:17:30;99852.44;;;7.03;77.35
43071;BME280;36278;47.952;21.714;2022-11-20T12:19:56;99852.72;;;6.99;77.48
43071;BME280;36278;47.952;21.714;2022-11-20T12:25:02;99876.31;;;6.88;78.75
43071;BME280;36278;47.952;21.714;2022-11-20T12:27:51;99870.44;;;6.84;78.45
43071;BME280;36278;47.952;21.714;2022-11-20T12:30:22;99826.50;;;6.72;78.60
43071;BME280;36278;47.952;21.714;2022-11-20T12:52:52;99863.91;;;7.28;78.41
43071;BME280;36278;47.952;21.714;2022-11-20T12:55:50;99860.75;;;7.23;78.78
43071;BME280;36278;47.952;21.714;2022-11-20T13:01:17;99870.94;;;7.53;77.67
43071;BME280;36278;47.952;21.714;2022-11-20T13:07:00;99854.41;;;7.38;77.74
43071;BME280;36278;47.952;21.714;2022-11-20T13:09:27;99827.66;;;6.81;79.40
43071;BME280;36278;47.952;21.714;2022-11-20T13:17:16;99850.75;;;7.02;80.60
43071;BME280;36278;47.952;21.714;2022-11-20T13:19:53;99846.38;;;6.63;83.23
43071;BME280;36278;47.952;21.714;2022-11-20T13:22:52;99856.22;;;6.87;82.90
43071;BME280;36278;47.952;21.714;2022-11-20T13:25:31;99854.31;;;6.89;83.14
43071;BME280;36278;47.952;21.714;2022-11-20T13:30:50;99837.22;;;6.56;85.55
43071;BME280;36278;47.952;21.714;2022-11-20T13:36:06;99858.94;;;6.98;84.01
43071;BME280;36278;47.952;21.714;2022-11-20T13:38:44;99838.00;;;6.96;82.50
43071;BME280;36278;47.952;21.714;2022-11-20T13:41:10;99854.84;;;7.07;83.05
43071;BME280;36278;47.952;21.714;2022-11-20T13:43:58;99842.84;;;7.02;83.55
43071;BME280;36278;47.952;21.714;2022-11-20T13:46:38;99844.09;;;6.97;84.04
43071;BME280;36278;47.952;21.714;2022-11-20T13:49:18;99790.16;;;6.64;84.93
43071;BME280;36278;47.952;21.714;2022-11-20T13:51:46;99821.56;;;6.93;84.62
43071;BME280;36278;47.952;21.714;2022-11-20T13:54:32;99813.03;;;6.77;86.06
43071;BME280;36278;47.952;21.714;2022-11-20T14:02:40;99793.31;;;6.82;86.19
43071;BME280;36278;47.952;21.714;2022-11-20T14:05:28;99860.31;;;7.16;87.28
43071;BME280;36278;47.952;21.714;2022-11-20T14:07:57;99795.66;;;6.61;88.47
43071;BME280;36278;47.952;21.714;2022-11-20T14:10:29;99821.44;;;6.82;89.31
43071;BME280;36278;47.952;21.714;2022-11-20T14:12:55;99781.94;;;6.56;89.24
43071;BME280;36278;47.952;21.714;2022-11-20T14:15:32;99856.53;;;7.08;89.42
43071;BME280;36278;47.952;21.714;2022-11-20T14:17:59;99848.31;;;6.99;87.33
43071;BME280;36278;47.952;21.714;2022-11-20T14:20:27;99864.53;;;7.06;88.82
43071;BME280;36278;47.952;21.714;2022-11-20T14:22:54;99872.44;;;7.06;88.70
43071;BME280;36278;47.952;21.714;2022-11-20T14:25:22;99868.84;;;7.07;87.92
43071;BME280;36278;47.952;21.714;2022-11-20T14:27:52;99859.69;;;6.87;88.85
43071;BME280;36278;47.952;21.714;2022-11-20T14:30:23;99868.94;;;6.80;90.42
43071;BME280;36278;47.952;21.714;2022-11-20T14:32:50;99869.88;;;6.79;89.57
43071;BME280;36278;47.952;21.714;2022-11-20T14:35:26;99872.19;;;6.71;90.97
43071;BME280;36278;47.952;21.714;2022-11-20T14:37:52;99881.94;;;6.56;92.47
43071;BME280;36278;47.952;21.714;2022-11-20T14:40:32;99882.06;;;6.67;92.28
43071;BME280;36278;47.952;21.714;2022-11-20T14:43:00;99883.66;;;6.70;91.26